Time;durP1;ratioP1;P1;durP2;ratioP2;P2;SDS_P1;SDS_P2;PMS_P1;PMS_P2;Temp;Humidity;BMP_temperature;BMP_pressure;BME280_temperature;BME280_humidity;BME280_pressure;Samples;Min_cycle;Max_cycle;Signal;HPM_P1;HPM_P2
2021/10/13 00:00:10;;;;;;;35.05;24.20;;;;;;;11.78;100.00;100415.08;1754559;80;21058;-84
2021/10/13 00:02:38;;;;;;;28.65;23.12;;;;;;;11.76;100.00;100407.39;1754922;80;21426;-84
2021/10/13 00:05:06;;;;;;;30.08;22.85;;;;;;;11.73;100.00;100417.26;1754677;80;21040;-84
2021/10/13 00:07:34;;;;;;;34.38;23.60;;;;;;;11.69;100.00;100415.38;1755065;80;21656;-85
2021/10/13 00:10:02;;;;;;;34.13;24.15;;;;;;;11.67;100.00;100415.48;1754997;80;21134;-85
2021/10/13 00:12:32;;;;;;;40.88;23.57;;;;;;;11.66;100.00;100419.05;1754698;80;21061;-85
2021/10/13 00:14:59;;;;;;;38.58;23.98;;;;;;;11.67;100.00;100408.97;1754657;80;20974;-85
2021/10/13 00:17:26;;;;;;;30.12;24.23;;;;;;;11.64;100.00;100408.39;1754526;80;21065;-85
2021/10/13 00:19:53;;;;;;;45.43;31.77;;;;;;;11.51;100.00;100411.19;1754981;80;21535;-84
2021/10/13 00:22:20;;;;;;;46.28;36.85;;;;;;;11.36;100.00;100407.59;1754847;80;21138;-85
2021/10/13 00:24:47;;;;;;;47.03;33.15;;;;;;;11.24;100.00;100403.39;1755078;80;21093;-84
2021/10/13 00:27:14;;;;;;;41.70;30.50;;;;;;;11.11;100.00;100399.64;1754830;81;21045;-85
2021/10/13 00:29:41;;;;;;;46.30;32.93;;;;;;;11.00;100.00;100398.37;1754863;80;21021;-85
2021/10/13 00:32:08;;;;;;;41.65;31.30;;;;;;;10.89;100.00;100403.14;1754985;81;21523;-84
2021/10/13 00:34:35;;;;;;;41.15;29.85;;;;;;;10.79;100.00;100409.56;1754992;80;21139;-84
2021/10/13 00:37:03;;;;;;;44.53;30.17;;;;;;;10.71;100.00;100414.55;1754867;81;21085;-83
2021/10/13 00:39:30;;;;;;;39.30;28.67;;;;;;;10.67;100.00;100411.37;1754954;81;21050;-85
2021/10/13 00:41:57;;;;;;;37.10;28.70;;;;;;;10.65;100.00;100391.61;1755200;80;21046;-84
2021/10/13 00:44:24;;;;;;;38.00;28.00;;;;;;;10.62;100.00;100399.66;1755047;80;21075;-84
2021/10/13 00:46:51;;;;;;;38.60;26.15;;;;;;;10.54;100.00;100397.18;1755155;80;21740;-85
2021/10/13 00:49:18;;;;;;;36.45;26.25;;;;;;;10.44;100.00;100392.33;1755060;80;21030;-84
2021/10/13 00:51:45;;;;;;;40.25;27.15;;;;;;;10.39;100.00;100385.37;1755038;80;21018;-85
2021/10/13 00:54:12;;;;;;;40.60;26.57;;;;;;;10.31;100.00;100385.92;1754939;80;21100;-83
2021/10/13 00:56:39;;;;;;;40.73;27.65;;;;;;;10.22;100.00;100380.97;1755266;80;20994;-85
2021/10/13 00:59:06;;;;;;;45.03;27.50;;;;;;;10.16;100.00;100385.80;1754958;80;21143;-84
2021/10/13 01:01:47;;;;;;;44.40;28.50;;;;;;;10.14;100.00;100385.94;1755042;80;21002;-84
2021/10/13 01:05:08;;;;;;;45.98;28.62;;;;;;;10.12;100.00;100375.30;1752959;80;20958;-83
2021/10/13 01:08:02;;;;;;;40.48;27.93;;;;;;;10.04;100.00;100378.47;1755148;80;21140;-83
2021/10/13 01:10:50;;;;;;;46.73;30.15;;;;;;;10.03;100.00;100378.11;1760766;80;21018;-83
2021/10/13 01:13:34;;;;;;;67.70;38.92;;;;;;;10.06;100.00;100382.61;1754719;80;21151;-85
2021/10/13 01:16:12;;;;;;;69.75;36.48;;;;;;;10.09;100.00;100387.59;1753886;80;21832;-84
2021/10/13 01:18:54;;;;;;;59.55;36.23;;;;;;;10.10;100.00;100389.70;1750561;80;21034;-85
2021/10/13 01:21:32;;;;;;;51.00;33.85;;;;;;;10.13;100.00;100389.96;1751914;81;21293;-85
2021/10/13 01:24:23;;;;;;;45.45;32.67;;;;;;;10.18;100.00;100389.13;1750547;81;20998;-85
2021/10/13 01:27:14;;;;;;;56.28;35.88;;;;;;;10.21;100.00;100387.60;1754218;81;21156;-85
2021/10/13 01:29:41;;;;;;;50.05;34.08;;;;;;;10.26;100.00;100384.97;1752243;80;20999;-85
2021/10/13 01:32:17;;;;;;;49.03;32.98;;;;;;;10.30;100.00;100381.66;1754911;80;21029;-84
2021/10/13 01:34:46;;;;;;;47.93;32.42;;;;;;;10.26;100.00;100383.67;1752498;80;21049;-85
2021/10/13 01:37:21;;;;;;;65.12;32.55;;;;;;;10.21;100.00;100390.20;1754891;80;21570;-85
2021/10/13 01:39:52;;;;;;;68.50;33.80;;;;;;;10.19;100.00;100395.98;1754681;80;21155;-84
2021/10/13 01:42:21;;;;;;;55.73;33.10;;;;;;;10.19;100.00;100389.48;1729366;81;20970;-84
2021/10/13 01:44:51;;;;;;;49.08;32.60;;;;;;;10.22;100.00;100394.44;1754694;80;21025;-85
2021/10/13 01:47:22;;;;;;;51.55;33.67;;;;;;;10.24;100.00;100388.19;1755216;81;21109;-83
2021/10/13 01:49:54;;;;;;;54.38;33.48;;;;;;;10.28;100.00;100382.27;1754829;80;21880;-85
2021/10/13 01:52:25;;;;;;;54.75;34.30;;;;;;;10.25;100.00;100381.20;1731891;80;21382;-85
2021/10/13 01:54:58;;;;;;;60.15;33.95;;;;;;;10.24;100.00;100382.14;1754935;81;28485;-84
2021/10/13 01:57:28;;;;;;;50.52;34.80;;;;;;;10.21;100.00;100374.59;1752666;80;21239;-85
2021/10/13 01:59:59;;;;;;;;;;;;;;;10.20;100.00;100373.74;1757260;80;21120;-85
2021/10/13 02:02:31;;;;;;;47.75;32.85;;;;;;;10.19;100.00;100373.88;1756125;80;20191;-85
2021/10/13 02:04:59;;;;;;;51.85;34.00;;;;;;;10.13;100.00;100369.96;1736209;81;21047;-85
2021/10/13 02:07:29;;;;;;;48.90;34.38;;;;;;;10.05;100.00;100364.06;1757496;80;21043;-85
2021/10/13 02:10:02;;;;;;;55.20;36.88;;;;;;;9.94;100.00;100362.27;1757470;81;21183;-84
2021/10/13 02:12:31;;;;;;;48.87;36.88;;;;;;;9.86;100.00;100375.51;1734524;81;21044;-85
2021/10/13 02:15:01;;;;;;;54.85;37.75;;;;;;;9.85;100.00;100376.45;1757655;81;21602;-85
2021/10/13 02:17:29;;;;;;;56.35;37.65;;;;;;;9.86;100.00;100376.33;1757635;81;21122;-85
2021/10/13 02:19:58;;;;;;;47.55;36.90;;;;;;;9.89;100.00;100370.09;1757096;80;21105;-85
2021/10/13 02:22:31;;;;;;;58.28;39.40;;;;;;;9.84;100.00;100373.03;1756927;80;21661;-84
2021/10/13 02:24:59;;;;;;;54.63;38.38;;;;;;;9.73;100.00;100371.25;1757174;81;21100;-85
2021/10/13 02:27:43;;;;;;;56.65;40.23;;;;;;;9.62;100.00;100381.13;1757232;80;21026;-83
2021/10/13 02:30:11;;;;;;;55.08;40.00;;;;;;;9.61;100.00;100369.56;1757249;80;21150;-84
2021/10/13 02:32:38;;;;;;;51.00;37.90;;;;;;;9.55;100.00;100363.04;1757135;80;21084;-85
2021/10/13 02:35:08;;;;;;;51.53;37.35;;;;;;;9.53;100.00;100370.60;1757134;80;21069;-85
2021/10/13 02:37:35;;;;;;;54.85;38.17;;;;;;;9.48;100.00;100368.34;1757128;81;20999;-84
2021/10/13 02:40:04;;;;;;;57.03;38.35;;;;;;;9.43;100.00;100367.87;1757153;81;21080;-84
2021/10/13 02:42:34;;;;;;;52.20;38.20;;;;;;;9.38;100.00;100362.16;1757531;80;21052;-84
2021/10/13 02:45:03;;;;;;;57.65;39.15;;;;;;;9.27;100.00;100362.96;1756872;80;21570;-84
2021/10/13 02:47:36;;;;;;;57.00;39.20;;;;;;;9.18;100.00;100361.88;1757755;80;21724;-85
2021/10/13 02:50:36;;;;;;;57.62;39.27;;;;;;;9.10;100.00;100357.23;1732540;80;21581;-84
2021/10/13 02:53:21;;;;;;;57.78;38.33;;;;;;;9.11;100.00;100352.40;1757239;81;21112;-85
2021/10/13 02:55:53;;;;;;;57.45;39.92;;;;;;;9.04;100.00;100353.80;1736996;80;21179;-85
2021/10/13 02:58:35;;;;;;;57.90;39.03;;;;;;;8.93;100.00;100348.56;1787094;78;21987;-86
2021/10/13 03:01:04;;;;;;;53.40;38.08;;;;;;;8.79;100.00;100354.75;1784185;78;21045;-87
2021/10/13 03:03:35;;;;;;;52.65;36.93;;;;;;;8.63;100.00;100355.00;1786171;78;21586;-87
2021/10/13 03:06:04;;;;;;;52.67;36.60;;;;;;;8.49;100.00;100358.11;1775114;79;21716;-87
2021/10/13 03:08:36;;;;;;;53.63;37.23;;;;;;;8.41;100.00;100368.17;1754973;80;21212;-87
2021/10/13 03:11:05;;;;;;;51.98;38.15;;;;;;;8.37;100.00;100363.66;1754553;80;21147;-87
2021/10/13 03:13:39;;;;;;;47.62;36.40;;;;;;;8.42;100.00;100359.45;1756223;80;21077;-87
2021/10/13 03:16:07;;;;;;;50.65;36.90;;;;;;;8.46;100.00;100355.69;1777638;79;20951;-86
2021/10/13 03:18:37;;;;;;;61.65;39.00;;;;;;;8.55;100.00;100355.56;1785991;78;21124;-85
2021/10/13 03:21:05;;;;;;;54.15;40.25;;;;;;;8.67;100.00;100354.67;1766367;80;21077;-90
2021/10/13 03:23:32;;;;;;;57.73;42.17;;;;;;;8.77;100.00;100349.64;1786356;79;21566;-87
2021/10/13 03:26:09;;;;;;;57.75;42.70;;;;;;;8.80;100.00;100345.54;1786161;79;21547;-92
2021/10/13 03:28:39;;;;;;;69.45;44.60;;;;;;;8.73;100.00;100345.63;1786078;80;21077;-94
2021/10/13 03:31:07;;;;;;;193.22;100.90;;;;;;;8.69;100.00;100340.31;1785959;79;21558;-92
2021/10/13 03:33:40;;;;;;;182.25;96.45;;;;;;;8.71;100.00;100342.30;1785570;78;21373;-92
2021/10/13 03:36:09;;;;;;;202.70;118.45;;;;;;;8.61;100.00;100347.33;1765460;79;21573;-91
2021/10/13 03:38:37;;;;;;;133.78;82.53;;;;;;;8.54;100.00;100343.52;1786267;78;21072;-93
2021/10/13 03:41:04;;;;;;;89.47;60.63;;;;;;;8.46;100.00;100345.80;1765873;80;21010;-88
2021/10/13 03:43:31;;;;;;;77.50;49.88;;;;;;;8.35;100.00;100338.77;1786331;79;21013;-89
2021/10/13 03:45:58;;;;;;;62.00;45.38;;;;;;;8.24;100.00;100334.78;1783132;78;21114;-90
2021/10/13 03:48:27;;;;;;;57.70;42.43;;;;;;;8.18;100.00;100333.44;1755283;81;21420;-89
2021/10/13 03:50:56;;;;;;;58.85;39.90;;;;;;;8.20;100.00;100342.80;1771244;80;21049;-89
2021/10/13 03:53:23;;;;;;;60.85;43.38;;;;;;;8.25;100.00;100337.30;1760819;80;21077;-90
2021/10/13 03:55:50;;;;;;;66.02;46.00;;;;;;;8.26;100.00;100336.33;1780895;79;21089;-89
2021/10/13 03:58:17;;;;;;;64.10;46.10;;;;;;;8.32;100.00;100338.97;1784766;78;21102;-90
2021/10/13 04:00:44;;;;;;;67.67;45.83;;;;;;;8.33;100.00;100334.96;1782699;78;21108;-89
2021/10/13 04:03:11;;;;;;;65.65;44.58;;;;;;;8.33;100.00;100324.58;1773304;79;21137;-88
2021/10/13 04:05:38;;;;;;;60.90;43.68;;;;;;;8.30;100.00;100320.08;1767756;81;21146;-87
2021/10/13 04:08:08;;;;;;;53.70;41.08;;;;;;;8.34;100.00;100320.24;1768137;79;21034;-87
2021/10/13 04:10:36;;;;;;;60.73;39.85;;;;;;;8.33;100.00;100326.36;1766301;81;21038;-87
2021/10/13 04:13:03;;;;;;;56.42;40.17;;;;;;;8.29;100.00;100335.31;1766453;79;21567;-88
2021/10/13 04:15:31;;;;;;;58.28;42.15;;;;;;;8.27;100.00;100333.29;1762146;79;21113;-88
2021/10/13 04:17:58;;;;;;;54.75;41.83;;;;;;;8.21;100.00;100322.38;1767502;81;21089;-89
2021/10/13 04:20:26;;;;;;;56.25;43.38;;;;;;;8.12;100.00;100316.56;1762560;79;20994;-88
2021/10/13 04:22:54;;;;;;;59.58;40.95;;;;;;;8.02;100.00;100309.05;1763750;79;21105;-89
2021/10/13 04:25:21;;;;;;;59.48;40.73;;;;;;;7.94;100.00;100312.16;1741349;81;20987;-89
2021/10/13 04:27:48;;;;;;;57.80;40.67;;;;;;;7.89;100.00;100313.77;1759462;79;21019;-88
2021/10/13 04:30:16;;;;;;;61.83;43.15;;;;;;;7.86;100.00;100309.27;1756150;81;21019;-87
2021/10/13 04:32:44;;;;;;;53.70;41.08;;;;;;;7.82;100.00;100302.17;1772148;81;21534;-87
2021/10/13 04:35:12;;;;;;;49.85;38.78;;;;;;;7.81;100.00;100297.10;1772124;81;21149;-88
2021/10/13 04:37:39;;;;;;;51.98;39.00;;;;;;;7.80;100.00;100298.88;1771939;79;21070;-91
2021/10/13 04:40:07;;;;;;;51.25;37.93;;;;;;;7.83;100.00;100295.24;1772311;79;21074;-90
2021/10/13 04:42:36;;;;;;;53.30;38.58;;;;;;;7.87;100.00;100288.45;1763210;79;21030;-89
2021/10/13 04:45:04;;;;;;;48.48;37.00;;;;;;;7.88;100.00;100299.18;1741251;81;21010;-90
2021/10/13 04:47:32;;;;;;;52.75;40.50;;;;;;;7.92;100.00;100301.55;1741303;81;21104;-91
2021/10/13 04:49:59;;;;;;;51.42;38.67;;;;;;;7.98;100.00;100301.95;1741352;81;21057;-91
2021/10/13 04:52:26;;;;;;;52.35;38.88;;;;;;;8.03;100.00;100300.34;1740776;81;21661;-91
2021/10/13 04:54:53;;;;;;;51.25;40.00;;;;;;;8.12;100.00;100300.16;1728827;81;21058;-92
2021/10/13 04:57:19;;;;;;;49.90;39.15;;;;;;;8.19;100.00;100303.98;1728730;82;21615;-92
2021/10/13 04:59:47;;;;;;;55.90;40.98;;;;;;;8.25;100.00;100311.80;1744318;79;21698;-91
2021/10/13 05:02:14;;;;;;;53.87;42.03;;;;;;;8.35;100.00;100306.34;1765093;79;21507;-91
2021/10/13 05:04:41;;;;;;;51.18;40.15;;;;;;;8.42;100.00;100315.34;1785251;78;21097;-90
2021/10/13 05:07:08;;;;;;;48.23;39.75;;;;;;;8.42;100.00;100311.45;1780647;78;21030;-90
2021/10/13 05:09:35;;;;;;;48.23;38.75;;;;;;;8.44;100.00;100311.33;1766023;78;21017;-92
2021/10/13 05:12:04;;;;;;;48.40;37.50;;;;;;;8.49;100.00;100321.78;1780909;79;21058;-91
2021/10/13 05:14:32;;;;;;;51.68;40.33;;;;;;;8.57;100.00;100317.80;1785684;78;21876;-91
2021/10/13 05:16:59;;;;;;;57.10;43.28;;;;;;;8.67;100.00;100300.64;1785404;78;21022;-91
2021/10/13 05:19:26;;;;;;;58.75;43.73;;;;;;;8.71;100.00;100289.57;1785837;79;21054;-91
2021/10/13 05:21:53;;;;;;;58.10;43.08;;;;;;;8.69;100.00;100292.28;1765325;78;21539;-91
2021/10/13 05:24:20;;;;;;;62.17;43.87;;;;;;;8.68;100.00;100294.03;1734060;81;21073;-91
2021/10/13 05:26:47;;;;;;;67.72;44.83;;;;;;;8.72;100.00;100289.45;1734712;81;21007;-90
2021/10/13 05:29:14;;;;;;;50.55;41.18;;;;;;;8.74;100.00;100285.44;1755990;79;22015;-91
2021/10/13 05:31:41;;;;;;;54.03;41.05;;;;;;;8.78;100.00;100291.59;1755137;80;21057;-91
2021/10/13 05:34:09;;;;;;;59.25;43.92;;;;;;;8.84;100.00;100287.73;1754877;80;21562;-91
2021/10/13 05:36:36;;;;;;;54.88;40.85;;;;;;;8.88;100.00;100296.97;1755074;80;21952;-90
2021/10/13 05:39:03;;;;;;;58.83;43.87;;;;;;;8.93;100.00;100297.92;1755036;81;21088;-91
2021/10/13 05:41:30;;;;;;;56.42;45.20;;;;;;;8.99;100.00;100298.28;1755406;80;21054;-91
2021/10/13 05:43:57;;;;;;;55.40;44.15;;;;;;;9.07;100.00;100291.24;1754636;81;21093;-91
2021/10/13 05:46:24;;;;;;;58.60;43.83;;;;;;;9.13;100.00;100283.47;1754792;80;21030;-90
2021/10/13 05:48:51;;;;;;;63.15;46.25;;;;;;;9.18;100.00;100284.40;1734293;80;21839;-88
2021/10/13 05:51:19;;;;;;;55.28;43.20;;;;;;;9.23;100.00;100291.40;1754903;80;20994;-90
2021/10/13 05:53:46;;;;;;;62.00;44.33;;;;;;;9.28;100.00;100295.31;1755530;80;21665;-90
2021/10/13 05:56:12;;;;;;;61.23;44.50;;;;;;;9.36;100.00;100295.21;1754922;80;21037;-91
2021/10/13 05:58:40;;;;;;;59.77;44.25;;;;;;;9.46;100.00;100294.39;1755004;80;21029;-91
2021/10/13 06:01:07;;;;;;;62.40;44.45;;;;;;;9.54;100.00;100295.58;1754925;80;21038;-91
2021/10/13 06:03:34;;;;;;;64.53;46.58;;;;;;;9.60;100.00;100296.41;1755886;80;21841;-90
2021/10/13 06:06:01;;;;;;;67.30;47.75;;;;;;;9.66;100.00;100297.23;1756994;80;21131;-90
2021/10/13 06:08:29;;;;;;;64.40;46.20;;;;;;;9.74;100.00;100293.58;1757962;80;21026;-91
2021/10/13 06:10:58;;;;;;;65.97;48.68;;;;;;;9.81;100.00;100286.62;1757305;80;21566;-90
2021/10/13 06:13:25;;;;;;;70.28;47.53;;;;;;;9.88;100.00;100287.80;1757715;80;21070;-90
2021/10/13 06:15:53;;;;;;;66.33;45.65;;;;;;;9.95;100.00;100274.67;1756839;80;20998;-90
2021/10/13 06:18:20;;;;;;;66.77;46.83;;;;;;;10.07;100.00;100268.50;1757311;80;21085;-90
2021/10/13 06:20:49;;;;;;;58.55;45.95;;;;;;;10.16;100.00;100259.16;1757421;80;21507;-90
2021/10/13 06:23:15;;;;;;;62.88;47.00;;;;;;;10.28;100.00;100260.42;1757400;80;21214;-89
2021/10/13 06:25:42;;;;;;;60.03;45.67;;;;;;;10.39;100.00;100256.53;1757399;80;21138;-90
2021/10/13 06:28:09;;;;;;;63.40;47.10;;;;;;;10.47;100.00;100246.78;1759593;78;21029;-91
2021/10/13 06:30:37;;;;;;;58.30;44.95;;;;;;;10.54;100.00;100247.48;1736611;80;21058;-91
2021/10/13 06:33:05;;;;;;;56.53;44.85;;;;;;;10.64;100.00;100241.05;1757244;80;21136;-91
2021/10/13 06:35:33;;;;;;;64.03;46.18;;;;;;;10.77;100.00;100245.27;1757242;80;20990;-90
2021/10/13 06:38:00;;;;;;;58.05;44.42;;;;;;;10.85;100.00;100241.56;1757222;81;21147;-90
2021/10/13 06:40:27;;;;;;;58.28;44.48;;;;;;;10.91;100.00;100235.83;1757446;81;21061;-89
2021/10/13 06:42:54;;;;;;;57.58;42.23;;;;;;;10.95;100.00;100236.41;1757453;81;21057;-89
2021/10/13 06:45:22;;;;;;;57.55;41.37;;;;;;;11.01;100.00;100240.64;1778823;78;21065;-90
2021/10/13 06:47:51;;;;;;;54.42;41.40;;;;;;;11.11;100.00;100247.66;1770170;78;21076;-90
2021/10/13 06:50:18;;;;;;;51.75;41.83;;;;;;;11.17;100.00;100240.66;1770860;79;21130;-90
2021/10/13 06:52:45;;;;;;;54.35;42.25;;;;;;;11.27;100.00;100240.71;1757125;80;22024;-89
2021/10/13 06:55:13;;;;;;;64.58;44.13;;;;;;;11.38;100.00;100239.80;1757063;81;21041;-89
2021/10/13 06:57:41;;;;;;;54.80;40.40;;;;;;;11.49;100.00;100244.95;1757523;80;21085;-90
2021/10/13 07:00:09;;;;;;;58.17;43.25;;;;;;;11.57;100.00;100239.91;1783280;78;21049;-89
2021/10/13 07:02:36;;;;;;;52.27;41.77;;;;;;;11.65;100.00;100233.55;1774739;79;21861;-90
2021/10/13 07:05:03;;;;;;;52.93;42.30;;;;;;;11.73;100.00;100212.50;1753034;79;21058;-89
2021/10/13 07:07:31;;;;;;;58.35;43.23;;;;;;;11.83;100.00;100218.09;1741024;81;21030;-89
2021/10/13 07:09:58;;;;;;;59.13;39.33;;;;;;;11.98;100.00;100215.94;1726754;82;21015;-88
2021/10/13 07:12:25;;;;;;;57.48;41.53;;;;;;;12.14;100.00;100208.91;1741004;81;21042;-90
2021/10/13 07:14:53;;;;;;;52.90;40.20;;;;;;;12.33;100.00;100210.36;1740785;82;21144;-88
2021/10/13 07:17:20;;;;;;;50.58;36.80;;;;;;;12.49;100.00;100201.50;1741122;79;21031;-89
2021/10/13 07:19:47;;;;;;;47.15;37.28;;;;;;;12.66;100.00;100197.84;1741545;79;21082;-89
2021/10/13 07:22:15;;;;;;;53.40;39.92;;;;;;;12.82;100.00;100194.68;1744674;79;21164;-90
2021/10/13 07:24:42;;;;;;;54.88;40.85;;;;;;;12.97;100.00;100184.13;1741702;80;21184;-88
2021/10/13 07:27:09;;;;;;;50.85;38.08;;;;;;;13.13;100.00;100184.81;1741070;81;21867;-88
2021/10/13 07:29:41;;;;;;;47.50;34.33;;;;;;;13.24;100.00;100179.42;1741168;79;21074;-89
2021/10/13 07:32:06;;;;;;;47.60;35.83;;;;;;;13.38;100.00;100179.45;1739244;80;21062;-89
2021/10/13 07:34:33;;;;;;;35.68;30.08;;;;;;;13.56;100.00;100169.06;1754923;81;21036;-90
2021/10/13 07:37:00;;;;;;;43.75;32.90;;;;;;;13.71;100.00;100168.06;1741183;81;21133;-88
2021/10/13 07:39:27;;;;;;;49.18;32.48;;;;;;;13.83;100.00;100159.52;1740989;82;21226;-89
2021/10/13 07:41:54;;;;;;;39.53;31.85;;;;;;;13.95;100.00;100155.39;1740877;81;21050;-89
2021/10/13 07:44:22;;;;;;;45.10;33.80;;;;;;;14.02;100.00;100153.83;1741056;82;21026;-90
2021/10/13 07:46:49;;;;;;;42.65;32.40;;;;;;;14.09;100.00;100145.70;1746744;81;21539;-89
2021/10/13 07:49:17;;;;;;;38.80;30.50;;;;;;;14.12;100.00;100145.42;1766271;81;21070;-88
2021/10/13 07:51:44;;;;;;;44.38;33.58;;;;;;;14.15;100.00;100137.25;1758521;81;21022;-88
2021/10/13 07:54:12;;;;;;;41.70;32.15;;;;;;;14.16;100.00;100138.90;1771656;79;21523;-89
2021/10/13 07:56:39;;;;;;;40.03;31.05;;;;;;;14.17;100.00;100132.69;1771602;79;21086;-89
2021/10/13 07:59:06;;;;;;;42.40;31.15;;;;;;;14.20;100.00;100135.02;1771690;79;21074;-89
2021/10/13 08:01:33;;;;;;;41.95;30.70;;;;;;;14.20;100.00;100135.02;1763638;79;21038;-89
2021/10/13 08:04:02;;;;;;;37.20;28.07;;;;;;;14.22;100.00;100137.98;1741175;81;21140;-89
2021/10/13 08:06:29;;;;;;;37.53;28.65;;;;;;;14.23;100.00;100139.59;1741057;81;21097;-88
2021/10/13 08:08:56;;;;;;;41.00;28.80;;;;;;;14.25;100.00;100144.20;1741034;81;21641;-88
2021/10/13 08:11:24;;;;;;;34.15;27.80;;;;;;;14.27;100.00;100143.08;1741164;82;21018;-88
2021/10/13 08:13:51;;;;;;;38.67;27.40;;;;;;;14.32;100.00;100139.53;1741117;81;21583;-88
2021/10/13 08:16:20;;;;;;;41.05;29.92;;;;;;;14.38;100.00;100134.16;1743496;81;21105;-88
2021/10/13 08:18:48;;;;;;;40.03;29.67;;;;;;;14.46;100.00;100132.09;1741043;81;21579;-88
2021/10/13 08:21:16;;;;;;;40.38;30.15;;;;;;;14.54;100.00;100124.80;1741176;81;21050;-89
2021/10/13 08:23:43;;;;;;;40.15;30.40;;;;;;;14.61;100.00;100126.63;1747589;81;21061;-89
2021/10/13 08:26:10;;;;;;;37.50;28.95;;;;;;;14.67;100.00;100127.86;1747845;81;21050;-89
2021/10/13 08:28:37;;;;;;;36.95;28.60;;;;;;;14.70;100.00;100130.19;1741037;81;21812;-89
2021/10/13 08:31:04;;;;;;;36.53;28.05;;;;;;;14.72;100.00;100129.52;1740436;81;21476;-87
2021/10/13 08:33:32;;;;;;;38.40;30.20;;;;;;;14.72;100.00;100119.53;1747524;81;21049;-88
2021/10/13 08:35:59;;;;;;;32.55;28.23;;;;;;;14.67;100.00;100116.88;1769377;81;21026;-88
2021/10/13 08:38:26;;;;;;;38.08;30.23;;;;;;;14.64;100.00;100130.27;1772323;79;21035;-89
2021/10/13 08:40:53;;;;;;;42.83;29.23;;;;;;;14.61;100.00;100126.63;1741077;81;21141;-90
2021/10/13 08:43:20;;;;;;;32.63;26.80;;;;;;;14.57;100.00;100127.94;1741327;81;21492;-89
2021/10/13 08:45:48;;;;;;;35.92;27.27;;;;;;;14.56;100.00;100129.38;1743030;79;21046;-89
2021/10/13 08:48:15;;;;;;;38.45;28.00;;;;;;;14.59;100.00;100147.42;1741361;81;21045;-89
2021/10/13 08:50:43;;;;;;;33.33;26.45;;;;;;;14.62;100.00;100158.92;1742258;79;21654;-90
2021/10/13 08:53:16;;;;;;;32.25;26.35;;;;;;;14.65;100.00;100149.42;1745491;80;21106;-89
2021/10/13 08:55:44;;;;;;;30.92;26.05;;;;;;;14.72;100.00;100141.81;1771680;81;20995;-89
2021/10/13 08:58:26;;;;;;;31.73;25.62;;;;;;;14.76;100.00;100142.66;1771535;81;21018;-89
2021/10/13 09:01:10;;;;;;;32.80;27.00;;;;;;;14.81;100.00;100148.25;1753780;79;21141;-90
2021/10/13 09:03:44;;;;;;;32.70;26.97;;;;;;;14.89;100.00;100150.11;1742424;81;21033;-91
2021/10/13 09:06:19;;;;;;;31.93;26.93;;;;;;;14.98;100.00;100137.86;1750138;80;21170;-91
2021/10/13 09:09:10;;;;;;;40.00;30.55;;;;;;;15.08;100.00;100146.91;1780554;79;21049;-90
2021/10/13 09:11:47;;;;;;;33.85;25.45;;;;;;;15.16;100.00;100145.64;1765020;79;21108;-90
2021/10/13 09:14:21;;;;;;;32.10;26.10;;;;;;;15.25;100.00;100137.34;1754723;80;21967;-90
2021/10/13 09:16:58;;;;;;;36.15;27.80;;;;;;;15.28;100.00;100114.72;1768771;79;21037;-90
2021/10/13 09:19:44;;;;;;;42.98;30.92;;;;;;;15.36;100.00;100113.94;1786117;78;21830;-90
2021/10/13 09:22:16;;;;;;;41.88;29.07;;;;;;;15.43;100.00;100114.44;1760985;80;21594;-89
2021/10/13 09:24:52;;;;;;;38.25;29.35;;;;;;;15.50;100.00;100107.27;1721972;81;21097;-89
2021/10/13 09:27:25;;;;;;;39.83;28.38;;;;;;;15.54;100.00;100106.75;1739171;81;21042;-89
2021/10/13 09:30:07;;;;;;;37.20;28.50;;;;;;;15.61;100.00;100096.45;1773448;78;21028;-90
2021/10/13 09:32:44;;;;;;;31.33;26.30;;;;;;;15.67;100.00;100095.80;1769649;78;20983;-89
2021/10/13 09:35:12;;;;;;;33.53;25.68;;;;;;;15.79;100.00;100093.68;1778540;79;21032;-89
2021/10/13 09:37:49;;;;;;;34.48;27.05;;;;;;;15.92;100.00;100111.14;1756392;79;21068;-87
2021/10/13 09:40:32;;;;;;;38.60;28.92;;;;;;;16.10;100.00;100107.55;1735295;81;21049;-90
2021/10/13 09:42:59;;;;;;;41.18;29.42;;;;;;;16.29;100.00;100092.41;1754676;80;21484;-90
2021/10/13 09:45:28;;;;;;;33.75;27.35;;;;;;;16.49;100.00;100098.14;1754804;80;21216;-88
2021/10/13 09:48:03;;;;;;;40.60;29.18;;;;;;;16.61;100.00;100096.82;1754265;80;21045;-90
2021/10/13 09:50:47;;;;;;;39.00;29.40;;;;;;;16.72;100.00;100100.39;1754953;80;21058;-88
2021/10/13 09:53:22;;;;;;;35.52;27.45;;;;;;;16.86;100.00;100100.70;1734294;81;21137;-90
2021/10/13 09:55:50;;;;;;;36.90;26.87;;;;;;;16.94;100.00;100102.03;1734477;81;21002;-89
2021/10/13 09:58:30;;;;;;;50.88;27.42;;;;;;;16.96;100.00;100101.34;1755136;80;21124;-90
2021/10/13 10:01:17;;;;;;;36.08;27.70;;;;;;;16.92;100.00;100105.28;1754854;80;21681;-90
2021/10/13 10:03:46;;;;;;;39.55;29.63;;;;;;;16.85;100.00;100097.23;1755090;80;21002;-90
2021/10/13 10:06:16;;;;;;;38.78;29.50;;;;;;;16.81;100.00;100094.64;1754661;81;21538;-90
2021/10/13 10:09:03;;;;;;;46.05;33.38;;;;;;;16.76;100.00;100086.41;1754780;81;21089;-91
2021/10/13 10:11:34;;;;;;;40.78;33.10;;;;;;;16.74;100.00;100092.83;1754728;80;21155;-90
2021/10/13 10:14:04;;;;;;;45.67;34.83;;;;;;;16.70;100.00;100093.16;1755198;80;21015;-87
2021/10/13 10:16:39;;;;;;;44.27;32.23;;;;;;;16.70;100.00;100091.04;1755045;80;21098;-90
2021/10/13 10:19:29;;;;;;;37.63;29.40;;;;;;;16.73;100.00;100095.97;1753194;79;21054;-90
2021/10/13 10:22:15;;;;;;;38.02;25.80;;;;;;;16.76;100.00;100094.30;1782690;78;21034;-90
2021/10/13 10:24:53;;;;;;;33.38;26.55;;;;;;;16.81;100.00;100093.32;1753949;80;22099;-90
2021/10/13 10:27:26;;;;;;;27.30;24.43;;;;;;;16.86;100.00;100098.08;1755000;80;20947;-90
2021/10/13 10:30:03;;;;;;;30.97;25.27;;;;;;;16.88;100.00;100090.34;1755286;79;21467;-89
2021/10/13 10:32:31;;;;;;;45.15;28.05;;;;;;;16.90;100.00;100082.27;1756169;79;21077;-92
2021/10/13 10:35:08;;;;;;;34.83;27.58;;;;;;;16.90;100.00;100080.95;1764533;79;21621;-89
2021/10/13 10:37:49;;;;;;;35.30;28.27;;;;;;;16.93;100.00;100071.45;1754765;80;21146;-89
2021/10/13 10:40:32;;;;;;;39.60;30.97;;;;;;;16.96;100.00;100057.95;1755020;80;21030;-93
2021/10/13 10:43:23;;;;;;;36.10;28.87;;;;;;;17.01;100.00;100053.48;1754386;80;21495;-92
2021/10/13 10:45:54;;;;;;;37.30;27.52;;;;;;;17.01;100.00;100055.64;1749262;80;20971;-92
2021/10/13 10:48:25;;;;;;;39.48;28.77;;;;;;;17.06;100.00;100046.41;1762350;80;22186;-93
2021/10/13 10:50:57;;;;;;;36.05;27.98;;;;;;;17.09;100.00;100047.39;1755374;81;21488;-90
2021/10/13 10:53:29;;;;;;;34.60;28.70;;;;;;;17.14;100.00;100044.57;1754827;80;21549;-92
2021/10/13 10:56:22;;;;;;;34.50;29.52;;;;;;;17.21;100.00;100030.72;1780735;78;21116;-89
2021/10/13 10:59:03;;;;;;;36.75;31.05;;;;;;;17.26;100.00;100031.84;1772842;79;21042;-87
2021/10/13 11:01:33;;;;;;;40.48;34.98;;;;;;;17.30;100.00;100037.07;1781793;78;21631;-92
2021/10/13 11:04:07;;;;;;;39.90;33.88;;;;;;;17.27;100.00;100033.45;1781126;79;21140;-91
2021/10/13 11:06:36;;;;;;;41.23;34.23;;;;;;;17.28;100.00;100018.51;1776984;79;21037;-91
2021/10/13 11:09:11;;;;;;;43.17;34.20;;;;;;;17.26;100.00;100014.75;1780261;79;21442;-93
2021/10/13 11:11:43;;;;;;;56.63;36.93;;;;;;;17.24;100.00;100011.46;1780351;79;20975;-90
2021/10/13 11:14:27;;;;;;;56.05;35.60;;;;;;;17.22;100.00;100006.05;1780222;80;26098;-90
2021/10/13 11:16:58;;;;;;;52.30;37.40;;;;;;;17.19;100.00;100001.45;1780385;80;22003;-92
2021/10/13 11:19:32;;;;;;;47.13;38.10;;;;;;;17.22;100.00;99992.91;1780393;79;21460;-89